Time;durP1;ratioP1;P1;durP2;ratioP2;P2;SDS_P1;SDS_P2;PMS_P1;PMS_P2;Temp;Humidity;BMP_temperature;BMP_pressure;BME280_temperature;BME280_humidity;BME280_pressure;Samples;Min_cycle;Max_cycle;Signal;HPM_P1;HPM_P2
2022/07/13 00:00:01;;;;;;;0.00;0.00;;;21.00;99.90;;;;;;4974440;28;20955;-93
2022/07/13 00:02:34;;;;;;;0.00;0.00;;;21.00;99.90;;;;;;4974449;28;20555;-92
2022/07/13 00:05:07;;;;;;;0.00;0.00;;;21.00;99.90;;;;;;4975967;28;20447;-92
2022/07/13 00:07:37;;;;;;;0.00;0.00;;;21.00;99.90;;;;;;4975112;28;20455;-92
2022/07/13 00:10:07;;;;;;;0.00;0.00;;;21.00;99.90;;;;;;4974422;28;20475;-92
2022/07/13 00:12:35;;;;;;;0.00;0.00;;;20.90;99.90;;;;;;4975689;28;20556;-92
2022/07/13 00:15:05;;;;;;;0.00;0.00;;;20.90;99.90;;;;;;4977172;28;21094;-91
2022/07/13 00:17:34;;;;;;;0.00;0.00;;;20.90;99.90;;;;;;4988615;28;20444;-91
2022/07/13 00:20:04;;;;;;;0.00;0.00;;;20.90;99.90;;;;;;4974916;28;20510;-91
2022/07/13 00:22:34;;;;;;;0.00;0.00;;;20.90;99.90;;;;;;4978404;28;20495;-91
2022/07/13 00:25:05;;;;;;;0.00;0.00;;;20.90;99.90;;;;;;4994261;28;20572;-91
2022/07/13 00:27:34;;;;;;;0.00;0.00;;;20.90;99.90;;;;;;4984957;28;20452;-92
2022/07/13 00:30:03;;;;;;;0.00;0.00;;;20.90;99.90;;;;;;4976333;28;20481;-91
2022/07/13 00:32:32;;;;;;;0.00;0.00;;;20.90;99.90;;;;;;4991928;28;20991;-91
2022/07/13 00:35:03;;;;;;;0.00;0.00;;;20.90;99.90;;;;;;4987389;28;20531;-91
2022/07/13 00:37:32;;;;;;;0.00;0.00;;;20.90;99.90;;;;;;4981277;28;20453;-92
2022/07/13 00:40:02;;;;;;;0.00;0.00;;;20.90;99.90;;;;;;4979035;28;20452;-92
2022/07/13 00:42:31;;;;;;;0.00;0.00;;;20.90;99.90;;;;;;4981012;28;20473;-93
2022/07/13 00:45:00;;;;;;;0.00;0.00;;;20.80;99.90;;;;;;4976780;28;20511;-91
2022/07/13 00:47:35;;;;;;;0.00;0.00;;;20.80;99.90;;;;;;4980734;28;20480;-91
2022/07/13 00:50:19;;;;;;;0.00;0.00;;;20.80;99.90;;;;;;4986730;28;20543;-92
2022/07/13 00:53:01;;;;;;;0.00;0.00;;;20.80;99.90;;;;;;4976305;23;20580;-74
2022/07/13 00:55:32;;;;;;;0.00;0.00;;;20.70;99.90;;;;;;4963291;28;20455;-73
2022/07/13 00:58:00;;;;;;;0.00;0.00;;;20.70;99.90;;;;;;4963850;28;20766;-73
2022/07/13 01:00:28;;;;;;;0.00;0.00;;;20.70;99.90;;;;;;4963158;28;20833;-73
2022/07/13 01:02:56;;;;;;;0.00;0.00;;;20.70;99.90;;;;;;4965049;28;20940;-73
2022/07/13 01:05:26;;;;;;;0.00;0.00;;;20.70;99.90;;;;;;4963499;28;20735;-73
2022/07/13 01:07:54;;;;;;;0.00;0.00;;;20.70;99.90;;;;;;4961753;28;21073;-73
2022/07/13 01:10:22;;;;;;;0.00;0.00;;;20.70;99.90;;;;;;4960155;28;20494;-73
2022/07/13 01:12:50;;;;;;;0.00;0.00;;;20.70;99.90;;;;;;4960197;28;20444;-74
2022/07/13 01:15:19;;;;;;;0.00;0.00;;;20.70;99.90;;;;;;4960495;28;20467;-73
2022/07/13 01:17:47;;;;;;;0.00;0.00;;;20.70;99.90;;;;;;4959499;28;21013;-73
2022/07/13 01:20:17;;;;;;;0.00;0.00;;;20.70;99.90;;;;;;4961157;28;20444;-73
2022/07/13 01:22:48;;;;;;;0.00;0.00;;;20.70;99.90;;;;;;4960630;28;20555;-73
2022/07/13 01:25:18;;;;;;;0.00;0.00;;;20.60;99.90;;;;;;4960374;28;20579;-73
2022/07/13 01:27:48;;;;;;;0.00;0.00;;;20.60;99.90;;;;;;4960122;28;20687;-73
2022/07/13 01:30:17;;;;;;;0.00;0.00;;;20.60;99.90;;;;;;4960167;28;20575;-73
2022/07/13 01:32:46;;;;;;;0.00;0.00;;;20.60;99.90;;;;;;4959875;28;20455;-73
2022/07/13 01:35:15;;;;;;;0.00;0.00;;;20.70;99.90;;;;;;4960227;28;20961;-73
2022/07/13 01:37:44;;;;;;;0.00;0.00;;;20.60;99.90;;;;;;4960046;28;20797;-73
2022/07/13 01:40:12;;;;;;;0.00;0.00;;;20.60;99.90;;;;;;4959988;28;20432;-73
2022/07/13 01:42:43;;;;;;;0.00;0.00;;;20.60;99.90;;;;;;4959820;28;20458;-73
2022/07/13 01:45:12;;;;;;;0.00;0.00;;;20.70;99.90;;;;;;4959905;28;20629;-73
2022/07/13 01:47:41;;;;;;;0.00;0.00;;;20.60;99.90;;;;;;4959806;28;20476;-74
2022/07/13 01:50:11;;;;;;;0.00;0.00;;;20.60;99.90;;;;;;4959772;28;20996;-74
2022/07/13 01:52:39;;;;;;;0.00;0.00;;;20.60;99.90;;;;;;4959868;28;20474;-73
2022/07/13 01:55:09;;;;;;;0.00;0.00;;;20.60;99.90;;;;;;4960121;28;20555;-74
2022/07/13 01:57:37;;;;;;;0.00;0.00;;;20.60;99.90;;;;;;4959304;28;20927;-73
2022/07/13 02:00:10;;;;;;;0.00;0.00;;;20.60;99.90;;;;;;4959383;28;20447;-73
2022/07/13 02:02:37;;;;;;;0.00;0.00;;;20.50;99.90;;;;;;4959977;28;20514;-73
2022/07/13 02:05:06;;;;;;;0.00;0.00;;;20.50;99.90;;;;;;4959344;28;20456;-73
2022/07/13 02:07:34;;;;;;;0.00;0.00;;;20.60;99.90;;;;;;4959050;28;20703;-74
2022/07/13 02:10:02;;;;;;;0.00;0.00;;;20.50;99.90;;;;;;4959045;28;20501;-74
2022/07/13 02:12:30;;;;;;;0.00;0.00;;;20.50;99.90;;;;;;4959433;28;20550;-74
2022/07/13 02:14:57;;;;;;;0.00;0.00;;;20.60;99.90;;;;;;4959539;28;20436;-73
2022/07/13 02:22:45;;;;;;;0.10;0.00;;;20.50;99.90;;;;;;4724545;23;20583;-72
2022/07/13 02:25:14;;;;;;;0.00;0.00;;;20.50;99.90;;;;;;4960937;28;20475;-72
2022/07/13 02:27:42;;;;;;;0.00;0.00;;;20.50;99.90;;;;;;4959256;28;20732;-73
2022/07/13 02:30:11;;;;;;;0.00;0.00;;;20.50;99.90;;;;;;4959039;28;20562;-73
2022/07/13 02:32:39;;;;;;;0.00;0.00;;;20.40;99.90;;;;;;4959395;28;21238;-74
2022/07/13 02:35:08;;;;;;;0.00;0.00;;;20.40;99.90;;;;;;4962479;28;20469;-73
2022/07/13 02:37:36;;;;;;;0.00;0.00;;;20.40;99.90;;;;;;4973524;28;20538;-73
2022/07/13 02:40:07;;;;;;;0.00;0.00;;;20.40;99.90;;;;;;4963420;28;20713;-73
2022/07/13 02:42:35;;;;;;;0.00;0.00;;;20.40;99.90;;;;;;4959691;28;20617;-73
2022/07/13 02:45:04;;;;;;;0.00;0.00;;;20.50;99.90;;;;;;4958865;28;20801;-73
2022/07/13 02:47:32;;;;;;;0.00;0.00;;;20.50;99.90;;;;;;4958979;28;20458;-73
2022/07/13 02:50:00;;;;;;;0.00;0.00;;;20.50;99.90;;;;;;4959224;28;20570;-74
2022/07/13 02:52:28;;;;;;;0.00;0.00;;;20.50;99.90;;;;;;4958678;28;20447;-73
2022/07/13 02:54:56;;;;;;;0.00;0.00;;;20.50;99.90;;;;;;4959256;28;20835;-74
2022/07/13 02:57:25;;;;;;;0.00;0.00;;;20.50;99.90;;;;;;4958791;28;20478;-73
2022/07/13 02:59:52;;;;;;;0.00;0.00;;;20.50;99.90;;;;;;4959446;28;20456;-73
2022/07/13 03:02:20;;;;;;;0.00;0.00;;;20.40;99.90;;;;;;4959222;28;20466;-73
2022/07/13 03:04:49;;;;;;;0.00;0.00;;;20.40;99.90;;;;;;4959248;28;20452;-73
2022/07/13 03:07:17;;;;;;;0.00;0.00;;;20.40;99.90;;;;;;4959110;28;20475;-73
2022/07/13 03:09:45;;;;;;;0.00;0.00;;;20.40;99.90;;;;;;4959036;28;20819;-71
2022/07/13 03:12:12;;;;;;;0.00;0.00;;;20.40;99.90;;;;;;4958889;28;20448;-73
2022/07/13 03:14:42;;;;;;;0.00;0.00;;;20.40;99.90;;;;;;4959109;28;20458;-73
2022/07/13 03:17:09;;;;;;;0.00;0.00;;;20.40;99.90;;;;;;4959195;28;20467;-73
2022/07/13 03:19:37;;;;;;;0.00;0.00;;;20.40;99.90;;;;;;4958881;28;20529;-73
2022/07/13 03:22:06;;;;;;;0.00;0.00;;;20.40;99.90;;;;;;4959615;28;20574;-73
2022/07/13 03:24:34;;;;;;;0.00;0.00;;;20.40;99.90;;;;;;4970598;28;20796;-74
2022/07/13 03:27:02;;;;;;;0.00;0.00;;;20.30;99.90;;;;;;4971121;28;20501;-73
2022/07/13 03:29:30;;;;;;;0.00;0.00;;;20.30;99.90;;;;;;4967471;28;20615;-73
2022/07/13 03:31:59;;;;;;;0.00;0.00;;;20.30;99.90;;;;;;4962918;28;20878;-73
2022/07/13 03:34:27;;;;;;;0.00;0.00;;;20.30;99.90;;;;;;4962943;28;20762;-73
2022/07/13 03:36:55;;;;;;;0.00;0.00;;;20.30;99.90;;;;;;4963486;28;20464;-73
2022/07/13 03:39:22;;;;;;;0.00;0.00;;;20.30;99.90;;;;;;4963831;28;20460;-73
2022/07/13 03:41:50;;;;;;;0.00;0.00;;;20.30;99.90;;;;;;4963377;28;20454;-73
2022/07/13 03:44:18;;;;;;;0.00;0.00;;;20.40;99.90;;;;;;4962162;28;20503;-73
2022/07/13 03:46:46;;;;;;;0.00;0.00;;;20.40;99.90;;;;;;4962531;28;20580;-73
2022/07/13 03:49:15;;;;;;;0.00;0.00;;;20.40;99.90;;;;;;4962341;28;20444;-73
2022/07/13 03:51:46;;;;;;;0.00;0.00;;;20.40;99.90;;;;;;4961875;28;20998;-73
2022/07/13 03:54:14;;;;;;;0.00;0.00;;;20.50;99.90;;;;;;4961827;28;20665;-73
2022/07/13 03:56:41;;;;;;;0.00;0.00;;;20.50;99.90;;;;;;4962237;28;20929;-74
2022/07/13 03:59:09;;;;;;;0.00;0.00;;;20.60;99.90;;;;;;4961913;28;20444;-73
2022/07/13 04:01:37;;;;;;;0.00;0.00;;;20.60;99.90;;;;;;4961596;28;21073;-74
2022/07/13 04:04:05;;;;;;;0.00;0.00;;;20.70;99.90;;;;;;4961657;28;20436;-73
2022/07/13 04:06:35;;;;;;;0.00;0.00;;;20.70;99.90;;;;;;4962377;28;20444;-74
2022/07/13 04:09:02;;;;;;;0.00;0.00;;;20.80;99.90;;;;;;4961847;28;21122;-74
2022/07/13 04:11:30;;;;;;;0.00;0.00;;;20.80;99.90;;;;;;4961981;28;21048;-74
2022/07/13 04:13:58;;;;;;;0.00;0.00;;;20.90;99.90;;;;;;4962432;28;20435;-74
2022/07/13 04:16:26;;;;;;;0.00;0.00;;;20.90;99.90;;;;;;4961734;28;20462;-74
2022/07/13 04:18:54;;;;;;;0.00;0.00;;;21.00;99.90;;;;;;4961641;28;20444;-73
2022/07/13 04:21:22;;;;;;;0.00;0.00;;;21.00;99.90;;;;;;4961713;28;20691;-73
2022/07/13 04:23:51;;;;;;;0.00;0.00;;;21.00;99.90;;;;;;4961561;28;20448;-73
2022/07/13 04:26:19;;;;;;;0.00;0.00;;;21.00;99.90;;;;;;4961529;28;20818;-73
2022/07/13 04:28:47;;;;;;;0.00;0.00;;;21.10;99.90;;;;;;4962188;28;20843;-72
2022/07/13 04:31:15;;;;;;;0.00;0.00;;;21.10;99.90;;;;;;4961910;28;20855;-73
2022/07/13 04:33:43;;;;;;;0.00;0.00;;;21.20;99.90;;;;;;4961041;28;20482;-72
2022/07/13 04:36:11;;;;;;;0.00;0.00;;;21.20;99.90;;;;;;4961345;28;20440;-74
2022/07/13 04:38:39;;;;;;;0.00;0.00;;;21.20;99.90;;;;;;4961612;28;20606;-73
2022/07/13 04:41:11;;;;;;;0.00;0.00;;;21.20;99.90;;;;;;4961447;28;20454;-74
2022/07/13 04:43:38;;;;;;;0.00;0.00;;;21.20;99.90;;;;;;4961621;28;20957;-74
2022/07/13 04:46:06;;;;;;;0.00;0.00;;;21.30;99.90;;;;;;4965636;28;20452;-74
2022/07/13 04:48:34;;;;;;;0.00;0.00;;;21.30;99.90;;;;;;4969686;28;20534;-73
2022/07/13 04:51:02;;;;;;;0.00;0.00;;;21.40;99.90;;;;;;4963455;28;20667;-73
2022/07/13 04:53:30;;;;;;;0.00;0.00;;;21.40;99.90;;;;;;4962751;28;20446;-72
2022/07/13 04:55:58;;;;;;;0.00;0.00;;;21.40;99.90;;;;;;4962335;28;20939;-73
2022/07/13 04:58:27;;;;;;;0.00;0.00;;;21.50;99.90;;;;;;4961884;28;20476;-73
2022/07/13 05:00:55;;;;;;;0.00;0.00;;;21.50;99.90;;;;;;4961706;28;20466;-74
2022/07/13 05:03:42;;;;;;;0.00;0.00;;;21.50;99.90;;;;;;4961253;28;20536;-74
2022/07/13 05:06:10;;;;;;;0.00;0.00;;;21.50;99.90;;;;;;4961016;28;20449;-73
2022/07/13 05:08:38;;;;;;;0.00;0.00;;;21.60;99.90;;;;;;4960813;28;21108;-72
2022/07/13 05:11:07;;;;;;;0.00;0.00;;;21.70;99.90;;;;;;4960762;28;20488;-75
2022/07/13 05:13:37;;;;;;;0.00;0.00;;;21.80;99.90;;;;;;4960619;28;20729;-73
2022/07/13 05:16:05;;;;;;;0.00;0.00;;;21.80;99.90;;;;;;4960461;28;20616;-73
2022/07/13 05:18:33;;;;;;;0.00;0.00;;;21.90;99.90;;;;;;4962117;28;20476;-73
2022/07/13 05:21:01;;;;;;;0.00;0.00;;;21.90;99.90;;;;;;4964258;28;20458;-74
2022/07/13 05:23:29;;;;;;;0.00;0.00;;;22.00;99.90;;;;;;4960955;28;20449;-74
2022/07/13 05:25:57;;;;;;;0.00;0.00;;;22.00;99.90;;;;;;4961294;28;20445;-74
2022/07/13 05:28:25;;;;;;;0.00;0.00;;;22.10;99.90;;;;;;4960398;28;21009;-74
2022/07/13 05:30:54;;;;;;;0.00;0.00;;;22.20;99.90;;;;;;4960292;28;20453;-74
2022/07/13 05:33:22;;;;;;;0.00;0.00;;;22.30;99.90;;;;;;4960367;28;20438;-74
2022/07/13 05:35:49;;;;;;;0.00;0.00;;;22.30;99.90;;;;;;4960395;28;20452;-74
2022/07/13 05:38:17;;;;;;;0.00;0.00;;;22.30;99.90;;;;;;4960643;28;20527;-74
2022/07/13 05:40:46;;;;;;;0.00;0.00;;;22.30;99.90;;;;;;4960709;28;20977;-74
2022/07/13 05:43:14;;;;;;;0.00;0.00;;;22.30;99.90;;;;;;4967972;28;20428;-74
2022/07/13 05:45:41;;;;;;;0.00;0.00;;;22.20;99.90;;;;;;4961319;28;20826;-74
2022/07/13 05:48:10;;;;;;;0.00;0.00;;;22.20;99.90;;;;;;4960161;28;20572;-74
2022/07/13 05:50:40;;;;;;;0.00;0.00;;;22.10;99.90;;;;;;4959938;28;20461;-74
2022/07/13 05:53:08;;;;;;;0.00;0.00;;;22.10;99.90;;;;;;4961294;28;20481;-74
2022/07/13 05:55:36;;;;;;;0.00;0.00;;;22.20;99.90;;;;;;4960987;28;20449;-72
2022/07/13 05:58:04;;;;;;;0.00;0.00;;;22.20;99.90;;;;;;4960234;28;20596;-73
2022/07/13 06:00:32;;;;;;;0.00;0.00;;;22.30;99.90;;;;;;4959536;28;20439;-72
2022/07/13 06:02:59;;;;;;;0.00;0.00;;;22.40;99.90;;;;;;4960268;28;20784;-74
2022/07/13 06:05:29;;;;;;;0.00;0.00;;;22.60;99.90;;;;;;4961767;28;20435;-74
2022/07/13 06:07:57;;;;;;;0.00;0.00;;;22.60;99.90;;;;;;4960815;28;20924;-73
2022/07/13 06:10:24;;;;;;;0.00;0.00;;;22.70;99.90;;;;;;4959357;28;20776;-74
2022/07/13 06:12:52;;;;;;;0.00;0.00;;;22.80;99.90;;;;;;4959640;28;20490;-73
2022/07/13 06:15:20;;;;;;;0.00;0.00;;;22.90;99.90;;;;;;4959181;28;20549;-74
2022/07/13 06:17:48;;;;;;;0.00;0.00;;;23.00;99.90;;;;;;4958851;28;20466;-73
2022/07/13 06:20:16;;;;;;;0.00;0.00;;;23.10;99.90;;;;;;4959624;28;20436;-74
2022/07/13 06:23:09;;;;;;;0.00;0.00;;;23.20;99.90;;;;;;4959526;28;20552;-73
2022/07/13 06:25:34;;;;;;;0.00;0.00;;;23.30;99.90;;;;;;4959165;28;20444;-74
2022/07/13 06:28:01;;;;;;;0.00;0.00;;;23.40;99.90;;;;;;4959103;28;20469;-73
2022/07/13 06:30:29;;;;;;;0.00;0.00;;;23.40;99.90;;;;;;4959227;28;20534;-73
2022/07/13 06:32:57;;;;;;;0.00;0.00;;;23.50;99.90;;;;;;4959401;28;20485;-72
2022/07/13 06:35:25;;;;;;;0.00;0.00;;;23.60;99.90;;;;;;4959708;28;20457;-74
2022/07/13 06:37:54;;;;;;;0.00;0.00;;;23.70;99.90;;;;;;4959380;28;20469;-73
2022/07/13 06:40:22;;;;;;;0.00;0.00;;;23.90;99.90;;;;;;4960531;28;20539;-74
2022/07/13 06:42:50;;;;;;;0.00;0.00;;;24.00;99.90;;;;;;4959622;28;20451;-73
2022/07/13 06:45:19;;;;;;;0.00;0.00;;;24.10;99.90;;;;;;4959164;28;20860;-73
2022/07/13 06:47:47;;;;;;;0.00;0.00;;;24.20;99.90;;;;;;4960419;28;20467;-73
2022/07/13 06:50:15;;;;;;;0.00;0.00;;;24.30;99.90;;;;;;4962095;28;20518;-73
2022/07/13 06:52:44;;;;;;;0.00;0.00;;;24.40;99.90;;;;;;4959836;28;20509;-73
2022/07/13 06:55:13;;;;;;;0.00;0.00;;;24.40;99.90;;;;;;4959857;28;20512;-73
2022/07/13 06:57:41;;;;;;;0.00;0.00;;;24.40;99.90;;;;;;4973289;28;20771;-73
2022/07/13 07:00:10;;;;;;;0.00;0.00;;;24.40;99.90;;;;;;4973909;28;20529;-73
2022/07/13 07:02:38;;;;;;;0.00;0.00;;;24.20;99.90;;;;;;4963198;28;20676;-73
2022/07/13 07:05:09;;;;;;;0.00;0.00;;;24.20;99.90;;;;;;4963239;28;21098;-73
2022/07/13 07:07:38;;;;;;;0.00;0.00;;;24.00;99.90;;;;;;4962944;28;21006;-73
2022/07/13 07:10:07;;;;;;;0.00;0.00;;;23.80;99.90;;;;;;4962849;28;20535;-73
2022/07/13 07:12:36;;;;;;;0.00;0.00;;;23.70;99.90;;;;;;4962640;28;20988;-72
2022/07/13 07:15:05;;;;;;;0.00;0.00;;;23.60;99.90;;;;;;4962483;28;20960;-74
2022/07/13 07:17:32;;;;;;;0.00;0.00;;;23.50;99.90;;;;;;4962372;28;20490;-74
2022/07/13 07:20:03;;;;;;;0.00;0.00;;;23.50;99.90;;;;;;4962533;28;20574;-72
2022/07/13 07:22:31;;;;;;;0.00;0.00;;;23.50;99.90;;;;;;4962418;28;20458;-74
2022/07/13 07:24:59;;;;;;;0.00;0.00;;;23.50;99.90;;;;;;4962536;28;20865;-73
2022/07/13 07:27:26;;;;;;;0.00;0.00;;;23.40;99.90;;;;;;4962325;28;20472;-73
2022/07/13 07:29:56;;;;;;;0.00;0.00;;;23.40;99.90;;;;;;4963378;28;20715;-73
2022/07/13 07:32:24;;;;;;;0.00;0.00;;;23.30;99.90;;;;;;4962666;28;20493;-73
2022/07/13 07:34:51;;;;;;;0.00;0.00;;;23.30;99.90;;;;;;4962517;28;20443;-73
2022/07/13 07:37:20;;;;;;;0.00;0.00;;;23.30;99.90;;;;;;4962667;28;20456;-73
2022/07/13 07:39:48;;;;;;;0.00;0.00;;;23.30;99.90;;;;;;4962890;28;20440;-73
2022/07/13 07:42:16;;;;;;;0.00;0.00;;;23.40;99.90;;;;;;4963173;28;20440;-73
2022/07/13 07:44:44;;;;;;;0.00;0.00;;;23.40;99.90;;;;;;4963882;28;20489;-73
2022/07/13 07:47:15;;;;;;;0.00;0.00;;;23.40;99.90;;;;;;4962231;28;20827;-73
2022/07/13 07:49:44;;;;;;;0.00;0.00;;;23.40;99.90;;;;;;4962498;28;20445;-73
2022/07/13 07:52:11;;;;;;;0.00;0.00;;;23.40;99.90;;;;;;4961913;28;20460;-73
2022/07/13 07:54:59;;;;;;;0.00;0.00;;;23.40;99.90;;;;;;4962615;28;20811;-73
2022/07/13 07:57:29;;;;;;;0.00;0.00;;;23.50;99.90;;;;;;4962239;28;20605;-73
2022/07/13 07:59:57;;;;;;;0.00;0.00;;;23.50;99.90;;;;;;4965366;28;20532;-73
2022/07/13 08:02:26;;;;;;;0.00;0.00;;;23.60;99.90;;;;;;4965372;28;20883;-73
2022/07/13 08:04:54;;;;;;;0.00;0.00;;;23.70;99.90;;;;;;4961735;28;20455;-73
2022/07/13 08:07:22;;;;;;;0.00;0.00;;;23.80;99.90;;;;;;4961769;28;20472;-72
2022/07/13 08:09:50;;;;;;;0.00;0.00;;;24.00;99.90;;;;;;4962423;28;20958;-73
2022/07/13 08:12:18;;;;;;;0.00;0.00;;;24.10;99.90;;;;;;4963608;28;20452;-73
2022/07/13 08:14:47;;;;;;;0.00;0.00;;;24.30;99.90;;;;;;4962796;28;20444;-73
2022/07/13 08:17:15;;;;;;;0.00;0.00;;;24.60;99.90;;;;;;4962799;28;20470;-73
2022/07/13 08:19:44;;;;;;;0.00;0.00;;;24.80;99.90;;;;;;4962345;28;20453;-74
2022/07/13 08:22:12;;;;;;;0.00;0.00;;;24.70;99.90;;;;;;4961093;28;20471;-74
2022/07/13 08:24:40;;;;;;;0.00;0.00;;;24.70;99.90;;;;;;4961512;28;21302;-73
2022/07/13 08:27:07;;;;;;;0.00;0.00;;;24.70;99.90;;;;;;4961642;28;20549;-73
2022/07/13 08:29:35;;;;;;;0.00;0.00;;;24.70;99.90;;;;;;4961352;28;20446;-73
2022/07/13 08:32:04;;;;;;;0.00;0.00;;;24.70;99.90;;;;;;4962137;28;20689;-73
2022/07/13 08:40:20;;;;;;;0.00;0.00;;;24.70;99.90;;;;;;4920550;29;20677;-74
2022/07/13 08:42:48;;;;;;;0.00;0.00;;;24.60;99.90;;;;;;4951864;28;20453;-73
2022/07/13 08:45:16;;;;;;;0.00;0.00;;;24.60;99.90;;;;;;4961208;28;20450;-74
2022/07/13 08:47:45;;;;;;;0.00;0.00;;;24.60;99.90;;;;;;4964453;28;20513;-73
2022/07/13 08:50:13;;;;;;;0.00;0.00;;;24.70;99.90;;;;;;4961264;28;20538;-73
2022/07/13 08:52:43;;;;;;;0.00;0.00;;;24.80;99.90;;;;;;4960717;28;20474;-73
2022/07/13 08:55:11;;;;;;;0.00;0.00;;;25.00;99.90;;;;;;4960976;28;21052;-73
2022/07/13 08:57:40;;;;;;;0.00;0.00;;;25.00;99.90;;;;;;4960618;28;20565;-72
2022/07/13 09:00:10;;;;;;;0.00;0.00;;;25.10;99.90;;;;;;4960980;28;20525;-73
2022/07/13 09:02:39;;;;;;;0.00;0.00;;;25.20;99.90;;;;;;4960680;28;20868;-73
2022/07/13 09:05:08;;;;;;;0.00;0.00;;;25.30;99.90;;;;;;4961468;28;20790;-72
2022/07/13 09:07:37;;;;;;;0.00;0.00;;;25.50;99.90;;;;;;4968336;28;20475;-72
2022/07/13 09:10:07;;;;;;;0.00;0.00;;;25.60;99.90;;;;;;4976973;28;20513;-72
2022/07/13 09:12:36;;;;;;;0.00;0.00;;;25.60;99.90;;;;;;4960848;28;20803;-73
2022/07/13 09:15:06;;;;;;;0.00;0.00;;;25.60;99.90;;;;;;4960647;28;20574;-72
2022/07/13 09:17:37;;;;;;;0.00;0.00;;;25.60;99.90;;;;;;4960911;28;20561;-72
2022/07/13 09:20:22;;;;;;;0.00;0.00;;;25.50;99.90;;;;;;4963865;28;20796;-73
2022/07/13 09:23:02;;;;;;;0.00;0.00;;;25.40;99.90;;;;;;4963639;28;20604;-73
2022/07/13 09:25:34;;;;;;;0.00;0.00;;;25.30;99.90;;;;;;4963359;28;20882;-73
2022/07/13 09:28:05;;;;;;;0.00;0.00;;;25.20;99.90;;;;;;4963488;28;20745;-74
2022/07/13 09:30:34;;;;;;;0.00;0.00;;;25.20;99.90;;;;;;4962518;28;20464;-74
2022/07/13 09:33:04;;;;;;;0.00;0.00;;;25.20;99.90;;;;;;4963439;28;20578;-73
2022/07/13 09:35:46;;;;;;;0.00;0.00;;;25.30;99.90;;;;;;4963643;28;20460;-73
2022/07/13 09:38:32;;;;;;;0.00;0.00;;;25.30;99.90;;;;;;4963990;28;21105;-73
2022/07/13 09:41:22;;;;;;;0.00;0.00;;;25.30;99.90;;;;;;4964206;28;20465;-73
2022/07/13 09:46:52;;;;;;;0.00;0.00;;;25.20;99.90;;;;;;4960909;28;20506;-73
2022/07/13 09:49:30;;;;;;;0.00;0.00;;;25.20;99.90;;;;;;4960051;28;20443;-73
2022/07/13 09:51:58;;;;;;;0.00;0.00;;;25.20;99.90;;;;;;4960081;28;20438;-73
2022/07/13 09:54:28;;;;;;;0.00;0.00;;;25.20;99.90;;;;;;4966418;28;20493;-74
2022/07/13 09:57:03;;;;;;;0.00;0.00;;;25.20;99.90;;;;;;4963792;28;21051;-73
2022/07/13 09:59:31;;;;;;;0.00;0.00;;;25.20;99.90;;;;;;4959972;28;20834;-73
2022/07/13 10:01:59;;;;;;;0.00;0.00;;;25.30;99.90;;;;;;4959702;28;20459;-73
2022/07/13 10:04:27;;;;;;;0.00;0.00;;;25.50;99.90;;;;;;4959464;28;20475;-73
2022/07/13 10:07:16;;;;;;;0.00;0.00;;;25.50;99.90;;;;;;4959750;28;20984;-73
2022/07/13 10:09:44;;;;;;;0.00;0.00;;;25.50;99.90;;;;;;4959852;28;20552;-73
2022/07/13 10:12:13;;;;;;;0.00;0.00;;;25.50;99.90;;;;;;4959879;28;20504;-73
2022/07/13 10:14:41;;;;;;;0.00;0.00;;;25.60;99.90;;;;;;4960532;28;20576;-73
2022/07/13 10:17:12;;;;;;;0.00;0.00;;;25.70;99.90;;;;;;4960220;28;20497;-73
2022/07/13 10:19:43;;;;;;;0.00;0.00;;;25.60;99.90;;;;;;4969082;28;20458;-72
2022/07/13 10:22:16;;;;;;;0.00;0.00;;;25.50;99.90;;;;;;4966078;28;20490;-72
2022/07/13 10:24:52;;;;;;;0.00;0.00;;;25.50;99.90;;;;;;4959445;28;20459;-74
2022/07/13 10:27:22;;;;;;;0.00;0.00;;;25.50;99.90;;;;;;4960184;28;20522;-73
2022/07/13 10:29:53;;;;;;;0.00;0.00;;;25.60;99.90;;;;;;4960970;28;20542;-72
2022/07/13 10:32:22;;;;;;;0.00;0.00;;;25.70;99.90;;;;;;4959346;28;20471;-74
2022/07/13 10:34:52;;;;;;;0.00;0.00;;;25.70;99.90;;;;;;4959454;28;20491;-71
2022/07/13 10:37:21;;;;;;;0.00;0.00;;;25.80;99.90;;;;;;4959233;28;20571;-73
2022/07/13 10:40:12;;;;;;;0.00;0.00;;;25.80;99.90;;;;;;4959115;28;20591;-73
2022/07/13 10:43:15;;;;;;;0.00;0.00;;;25.90;99.90;;;;;;4958950;28;21103;-73
2022/07/13 10:45:48;;;;;;;0.00;0.00;;;26.00;99.90;;;;;;4959379;28;20624;-72
2022/07/13 10:48:45;;;;;;;0.00;0.00;;;26.10;99.90;;;;;;4959160;28;20554;-73
2022/07/13 10:51:23;;;;;;;0.00;0.00;;;26.00;99.90;;;;;;4959360;28;21026;-74
2022/07/13 10:54:10;;;;;;;0.00;0.00;;;25.90;99.90;;;;;;4959108;28;20961;-72
2022/07/13 10:57:12;;;;;;;0.00;0.00;;;26.00;99.90;;;;;;4959559;28;20559;-72
2022/07/13 10:59:50;;;;;;;0.00;0.00;;;26.10;99.90;;;;;;4959125;28;20444;-72
2022/07/13 11:02:43;;;;;;;0.00;0.00;;;26.30;99.90;;;;;;4959269;28;20851;-72
2022/07/13 11:05:12;;;;;;;0.00;0.00;;;26.40;99.90;;;;;;4959951;28;20479;-72
2022/07/13 11:07:40;;;;;;;0.00;0.00;;;26.50;99.90;;;;;;4958940;28;20473;-73
2022/07/13 11:10:23;;;;;;;0.00;0.00;;;26.60;99.90;;;;;;4959751;28;20807;-73
2022/07/13 11:13:03;;;;;;;0.00;0.00;;;26.80;99.90;;;;;;4959516;28;20794;-73
2022/07/13 11:15:49;;;;;;;0.00;0.00;;;26.80;99.90;;;;;;4959020;28;20576;-73
2022/07/13 11:18:28;;;;;;;0.00;0.00;;;26.90;99.90;;;;;;4967674;28;20623;-73
2022/07/13 11:20:58;;;;;;;0.00;0.00;;;26.90;99.90;;;;;;4966851;28;20445;-73
2022/07/13 11:26:32;;;;;;;0.00;0.00;;;26.90;99.90;;;;;;4958968;28;20470;-73
2022/07/13 11:29:11;;;;;;;0.00;0.00;;;26.90;99.90;;;;;;4958563;28;20839;-73
2022/07/13 11:31:41;;;;;;;0.00;0.00;;;27.00;99.90;;;;;;4959456;28;20464;-73
2022/07/13 11:34:09;;;;;;;0.00;0.00;;;27.00;99.90;;;;;;4959298;28;21076;-73
2022/07/13 11:36:40;;;;;;;0.00;0.00;;;27.10;99.90;;;;;;4959162;28;20495;-73
2022/07/13 11:39:22;;;;;;;0.00;0.00;;;27.10;99.90;;;;;;4959025;28;20445;-72
2022/07/13 11:41:51;;;;;;;0.00;0.00;;;27.00;99.90;;;;;;4958772;28;20610;-72
2022/07/13 11:44:21;;;;;;;0.00;0.00;;;27.10;99.90;;;;;;4960588;28;20991;-72
2022/07/13 11:46:51;;;;;;;0.00;0.00;;;27.20;99.90;;;;;;4962615;28;20449;-72
2022/07/13 11:49:19;;;;;;;0.00;0.00;;;27.40;99.90;;;;;;4962010;28;20746;-72
2022/07/13 11:51:47;;;;;;;0.00;0.00;;;27.70;99.90;;;;;;4962451;28;20757;-74
2022/07/13 11:54:17;;;;;;;0.00;0.00;;;28.00;99.90;;;;;;4962504;28;20653;-73
2022/07/13 11:56:49;;;;;;;0.00;0.00;;;28.20;99.90;;;;;;4961877;28;20461;-73
2022/07/13 11:59:32;;;;;;;0.00;0.00;;;28.40;99.90;;;;;;4961599;28;20957;-74
2022/07/13 12:02:02;;;;;;;0.00;0.00;;;28.60;99.90;;;;;;4961898;28;20458;-73
2022/07/13 12:04:30;;;;;;;0.00;0.00;;;28.50;99.90;;;;;;4962665;28;21058;-73
2022/07/13 12:07:12;;;;;;;0.00;0.00;;;28.60;99.90;;;;;;4961990;28;20469;-72
2022/07/13 12:09:48;;;;;;;0.00;0.00;;;28.70;99.90;;;;;;4962282;28;20770;-71
2022/07/13 12:12:16;;;;;;;0.00;0.00;;;28.80;99.90;;;;;;4961896;28;20557;-74
2022/07/13 12:14:45;;;;;;;0.00;0.00;;;28.80;99.90;;;;;;4961968;28;20566;-73
2022/07/13 12:17:14;;;;;;;0.00;0.00;;;28.80;99.90;;;;;;4961961;28;20501;-73
2022/07/13 12:19:42;;;;;;;0.00;0.00;;;28.60;99.90;;;;;;4962183;28;20845;-73
2022/07/13 12:22:10;;;;;;;0.00;0.00;;;28.60;99.90;;;;;;4962131;28;20594;-72
2022/07/13 12:24:44;;;;;;;0.00;0.00;;;28.40;99.90;;;;;;4962565;28;20485;-73
2022/07/13 12:27:21;;;;;;;0.00;0.00;;;28.40;99.90;;;;;;4962445;28;20466;-73
2022/07/13 12:29:48;;;;;;;0.00;0.00;;;28.50;99.90;;;;;;4962261;28;20750;-73
2022/07/13 12:32:18;;;;;;;0.00;0.00;;;28.50;99.90;;;;;;4961729;28;20449;-74
2022/07/13 12:34:50;;;;;;;0.00;0.00;;;28.50;99.90;;;;;;4961976;28;20450;-73
2022/07/13 12:37:33;;;;;;;0.00;0.00;;;28.40;99.90;;;;;;4961926;28;20473;-71
2022/07/13 12:40:01;;;;;;;0.00;0.00;;;28.40;99.90;;;;;;4962034;28;20439;-74
2022/07/13 12:42:29;;;;;;;0.00;0.00;;;28.40;99.90;;;;;;4961947;28;20451;-73
2022/07/13 12:44:56;;;;;;;0.00;0.00;;;28.50;99.90;;;;;;4961230;28;20445;-72
2022/07/13 12:47:26;;;;;;;0.00;0.00;;;28.60;99.90;;;;;;4962426;28;20530;-74
2022/07/13 12:49:53;;;;;;;0.00;0.00;;;28.50;99.90;;;;;;4961645;28;20466;-73
2022/07/13 12:52:22;;;;;;;0.00;0.00;;;28.40;99.90;;;;;;4961477;28;20730;-73
2022/07/13 12:54:51;;;;;;;0.00;0.00;;;28.10;99.90;;;;;;4962590;28;20545;-73
2022/07/13 12:57:20;;;;;;;0.00;0.00;;;28.00;99.90;;;;;;4961374;28;20501;-71
2022/07/13 13:00:04;;;;;;;0.00;0.00;;;28.10;99.90;;;;;;4961128;28;20611;-73
2022/07/13 13:02:34;;;;;;;0.00;0.00;;;28.00;99.90;;;;;;4961583;28;20438;-74
2022/07/13 13:05:03;;;;;;;0.00;0.00;;;28.20;99.90;;;;;;4962339;28;20501;-73
2022/07/13 13:07:31;;;;;;;0.00;0.00;;;28.30;99.90;;;;;;4962077;28;21026;-74
2022/07/13 13:09:58;;;;;;;0.00;0.00;;;28.30;99.90;;;;;;4961224;28;20446;-73
2022/07/13 13:12:26;;;;;;;0.00;0.00;;;28.30;99.90;;;;;;4960753;28;20451;-72
2022/07/13 13:14:54;;;;;;;0.00;0.00;;;28.30;99.90;;;;;;4960272;28;20461;-72
2022/07/13 13:17:23;;;;;;;0.00;0.00;;;28.10;99.90;;;;;;4960136;28;20502;-72
2022/07/13 13:19:53;;;;;;;0.00;0.00;;;27.90;99.90;;;;;;4960348;28;20463;-72